sensor_id;sensor_type;location;lat;lon;timestamp;temperature;humidity
70807;DHT22;58882;52.170;5.386;2023-06-22T00:00:42;24.70;49.30
70807;DHT22;58882;52.170;5.386;2023-06-22T00:03:36;24.70;49.30
70807;DHT22;58882;52.170;5.386;2023-06-22T00:06:17;24.70;49.30
70807;DHT22;58882;52.170;5.386;2023-06-22T00:09:03;24.70;49.20
70807;DHT22;58882;52.170;5.386;2023-06-22T00:11:44;24.70;49.30
70807;DHT22;58882;52.170;5.386;2023-06-22T00:14:30;24.60;49.20
70807;DHT22;58882;52.170;5.386;2023-06-22T00:17:11;24.60;49.40
70807;DHT22;58882;52.170;5.386;2023-06-22T00:19:57;24.60;49.40
70807;DHT22;58882;52.170;5.386;2023-06-22T00:22:40;24.60;49.60
70807;DHT22;58882;52.170;5.386;2023-06-22T00:25:27;24.60;49.60
70807;DHT22;58882;52.170;5.386;2023-06-22T00:28:08;24.60;49.70
70807;DHT22;58882;52.170;5.386;2023-06-22T00:30:54;24.50;50.70
70807;DHT22;58882;52.170;5.386;2023-06-22T00:33:35;24.50;49.80
70807;DHT22;58882;52.170;5.386;2023-06-22T00:36:28;24.50;49.80
70807;DHT22;58882;52.170;5.386;2023-06-22T00:39:02;24.50;49.90
70807;DHT22;58882;52.170;5.386;2023-06-22T00:41:56;24.50;49.80
70807;DHT22;58882;52.170;5.386;2023-06-22T00:44:36;24.50;49.90
70807;DHT22;58882;52.170;5.386;2023-06-22T00:47:24;24.50;49.70
70807;DHT22;58882;52.170;5.386;2023-06-22T00:50:07;24.40;49.80
70807;DHT22;58882;52.170;5.386;2023-06-22T00:52:58;24.40;49.90
70807;DHT22;58882;52.170;5.386;2023-06-22T00:55:42;24.40;50.00
70807;DHT22;58882;52.170;5.386;2023-06-22T00:58:32;24.40;50.00
70807;DHT22;58882;52.170;5.386;2023-06-22T01:01:13;24.40;50.00
70807;DHT22;58882;52.170;5.386;2023-06-22T01:04:09;24.30;50.00
70807;DHT22;58882;52.170;5.386;2023-06-22T01:06:54;24.30;50.00
70807;DHT22;58882;52.170;5.386;2023-06-22T01:09:59;24.30;50.10
70807;DHT22;58882;52.170;5.386;2023-06-22T01:12:47;24.30;50.30
70807;DHT22;58882;52.170;5.386;2023-06-22T01:15:44;24.30;50.20
70807;DHT22;58882;52.170;5.386;2023-06-22T01:18:26;24.30;50.30
70807;DHT22;58882;52.170;5.386;2023-06-22T01:21:25;24.30;50.20
70807;DHT22;58882;52.170;5.386;2023-06-22T01:24:21;24.30;50.30
70807;DHT22;58882;52.170;5.386;2023-06-22T01:27:28;24.20;50.20
70807;DHT22;58882;52.170;5.386;2023-06-22T01:30:05;24.20;50.30
70807;DHT22;58882;52.170;5.386;2023-06-22T01:33:01;24.20;50.40
70807;DHT22;58882;52.170;5.386;2023-06-22T01:35:43;24.20;50.50
70807;DHT22;58882;52.170;5.386;2023-06-22T01:38:31;24.20;50.60
70807;DHT22;58882;52.170;5.386;2023-06-22T01:41:06;24.10;50.60
70807;DHT22;58882;52.170;5.386;2023-06-22T01:44:01;24.10;50.50
70807;DHT22;58882;52.170;5.386;2023-06-22T01:46:36;24.10;50.50
70807;DHT22;58882;52.170;5.386;2023-06-22T01:49:33;24.10;50.50
70807;DHT22;58882;52.170;5.386;2023-06-22T01:52:06;24.10;50.60
70807;DHT22;58882;52.170;5.386;2023-06-22T01:55:01;24.10;50.60
70807;DHT22;58882;52.170;5.386;2023-06-22T01:57:35;24.10;50.60
70807;DHT22;58882;52.170;5.386;2023-06-22T02:00:32;24.10;50.70
70807;DHT22;58882;52.170;5.386;2023-06-22T02:03:13;24.10;50.70
70807;DHT22;58882;52.170;5.386;2023-06-22T02:06:16;24.00;50.70
70807;DHT22;58882;52.170;5.386;2023-06-22T02:09:09;24.00;50.70
70807;DHT22;58882;52.170;5.386;2023-06-22T02:11:54;24.00;50.80
70807;DHT22;58882;52.170;5.386;2023-06-22T02:14:43;24.00;50.80
70807;DHT22;58882;52.170;5.386;2023-06-22T02:17:26;24.00;50.90
70807;DHT22;58882;52.170;5.386;2023-06-22T02:20:15;24.00;50.90
70807;DHT22;58882;52.170;5.386;2023-06-22T02:22:49;24.00;51.00
70807;DHT22;58882;52.170;5.386;2023-06-22T02:25:42;24.00;51.00
70807;DHT22;58882;52.170;5.386;2023-06-22T02:28:24;23.90;50.90
70807;DHT22;58882;52.170;5.386;2023-06-22T02:31:18;23.90;51.00
70807;DHT22;58882;52.170;5.386;2023-06-22T02:33:52;23.90;51.10
70807;DHT22;58882;52.170;5.386;2023-06-22T02:36:46;23.90;51.10
70807;DHT22;58882;52.170;5.386;2023-06-22T02:39:30;23.90;51.10
70807;DHT22;58882;52.170;5.386;2023-06-22T02:42:17;23.80;51.00
70807;DHT22;58882;52.170;5.386;2023-06-22T02:45:01;23.80;51.20
70807;DHT22;58882;52.170;5.386;2023-06-22T02:47:55;23.80;51.30
70807;DHT22;58882;52.170;5.386;2023-06-22T02:50:36;23.80;51.30
70807;DHT22;58882;52.170;5.386;2023-06-22T02:53:29;23.80;51.40
70807;DHT22;58882;52.170;5.386;2023-06-22T02:56:10;23.80;51.40
70807;DHT22;58882;52.170;5.386;2023-06-22T02:59:00;23.70;51.40
70807;DHT22;58882;52.170;5.386;2023-06-22T03:01:41;23.70;51.50
70807;DHT22;58882;52.170;5.386;2023-06-22T03:04:36;23.70;51.40
70807;DHT22;58882;52.170;5.386;2023-06-22T03:07:10;23.70;51.40
70807;DHT22;58882;52.170;5.386;2023-06-22T03:10:06;23.70;51.50
70807;DHT22;58882;52.170;5.386;2023-06-22T03:12:47;23.70;51.60
70807;DHT22;58882;52.170;5.386;2023-06-22T03:15:33;23.70;51.50
70807;DHT22;58882;52.170;5.386;2023-06-22T03:18:13;23.70;51.60
70807;DHT22;58882;52.170;5.386;2023-06-22T03:21:01;23.60;51.40
70807;DHT22;58882;52.170;5.386;2023-06-22T03:23:42;23.60;51.60
70807;DHT22;58882;52.170;5.386;2023-06-22T03:26:28;23.60;51.70
70807;DHT22;58882;52.170;5.386;2023-06-22T03:29:11;23.50;51.70
70807;DHT22;58882;52.170;5.386;2023-06-22T03:31:57;23.50;51.80
70807;DHT22;58882;52.170;5.386;2023-06-22T03:34:37;23.50;51.90
70807;DHT22;58882;52.170;5.386;2023-06-22T03:37:28;23.50;51.80
70807;DHT22;58882;52.170;5.386;2023-06-22T03:40:09;23.50;51.90
70807;DHT22;58882;52.170;5.386;2023-06-22T03:42:56;23.50;52.00
70807;DHT22;58882;52.170;5.386;2023-06-22T03:45:37;23.50;52.10
70807;DHT22;58882;52.170;5.386;2023-06-22T03:48:25;23.50;52.10
70807;DHT22;58882;52.170;5.386;2023-06-22T03:51:06;23.50;52.20
70807;DHT22;58882;52.170;5.386;2023-06-22T03:53:59;23.50;52.20
70807;DHT22;58882;52.170;5.386;2023-06-22T03:56:40;23.50;52.00
70807;DHT22;58882;52.170;5.386;2023-06-22T03:59:33;23.40;52.00
70807;DHT22;58882;52.170;5.386;2023-06-22T04:02:07;23.40;52.20
70807;DHT22;58882;52.170;5.386;2023-06-22T04:05:00;23.40;52.30
70807;DHT22;58882;52.170;5.386;2023-06-22T04:07:37;23.40;52.30
70807;DHT22;58882;52.170;5.386;2023-06-22T04:10:30;23.40;52.30
70807;DHT22;58882;52.170;5.386;2023-06-22T04:13:05;23.40;52.40
70807;DHT22;58882;52.170;5.386;2023-06-22T04:15:58;23.40;52.40
70807;DHT22;58882;52.170;5.386;2023-06-22T04:18:34;23.40;52.50
70807;DHT22;58882;52.170;5.386;2023-06-22T04:21:28;23.40;52.50
70807;DHT22;58882;52.170;5.386;2023-06-22T04:24:02;23.40;52.60
70807;DHT22;58882;52.170;5.386;2023-06-22T04:26:55;23.40;52.60
70807;DHT22;58882;52.170;5.386;2023-06-22T04:29:36;23.40;52.80
70807;DHT22;58882;52.170;5.386;2023-06-22T04:32:22;23.40;52.80
70807;DHT22;58882;52.170;5.386;2023-06-22T04:35:03;23.40;52.80
70807;DHT22;58882;52.170;5.386;2023-06-22T04:37:55;23.40;52.80
70807;DHT22;58882;52.170;5.386;2023-06-22T04:40:37;23.40;52.90
70807;DHT22;58882;52.170;5.386;2023-06-22T04:43:23;23.40;52.90
70807;DHT22;58882;52.170;5.386;2023-06-22T04:45:57;23.40;53.00
70807;DHT22;58882;52.170;5.386;2023-06-22T04:48:50;23.40;54.00
70807;DHT22;58882;52.170;5.386;2023-06-22T04:51:31;23.40;53.00
70807;DHT22;58882;52.170;5.386;2023-06-22T04:54:17;23.50;53.00
70807;DHT22;58882;52.170;5.386;2023-06-22T04:57:01;23.50;53.10
70807;DHT22;58882;52.170;5.386;2023-06-22T04:59:51;23.50;53.00
70807;DHT22;58882;52.170;5.386;2023-06-22T05:02:32;23.50;53.10
70807;DHT22;58882;52.170;5.386;2023-06-22T05:05:25;23.50;53.00
70807;DHT22;58882;52.170;5.386;2023-06-22T05:08:13;23.50;53.10
70807;DHT22;58882;52.170;5.386;2023-06-22T05:10:54;23.50;53.10
70807;DHT22;58882;52.170;5.386;2023-06-22T05:13:47;23.60;53.10
70807;DHT22;58882;52.170;5.386;2023-06-22T05:16:21;23.60;53.20
70807;DHT22;58882;52.170;5.386;2023-06-22T05:19:16;23.60;53.20
70807;DHT22;58882;52.170;5.386;2023-06-22T05:21:50;23.70;53.30
70807;DHT22;58882;52.170;5.386;2023-06-22T05:24:44;23.70;53.20
70807;DHT22;58882;52.170;5.386;2023-06-22T05:27:24;23.70;53.40
70807;DHT22;58882;52.170;5.386;2023-06-22T05:30:11;23.70;53.30
70807;DHT22;58882;52.170;5.386;2023-06-22T05:32:45;23.70;53.30
70807;DHT22;58882;52.170;5.386;2023-06-22T05:35:39;23.80;53.30
70807;DHT22;58882;52.170;5.386;2023-06-22T05:38:13;23.80;53.50
70807;DHT22;58882;52.170;5.386;2023-06-22T05:41:08;23.80;53.40
70807;DHT22;58882;52.170;5.386;2023-06-22T05:43:48;23.90;53.40
70807;DHT22;58882;52.170;5.386;2023-06-22T05:46:43;24.00;53.50
70807;DHT22;58882;52.170;5.386;2023-06-22T05:49:23;24.00;54.40
70807;DHT22;58882;52.170;5.386;2023-06-22T05:52:11;24.00;53.20
70807;DHT22;58882;52.170;5.386;2023-06-22T05:54:45;24.10;53.20
70807;DHT22;58882;52.170;5.386;2023-06-22T05:57:38;24.10;52.90
70807;DHT22;58882;52.170;5.386;2023-06-22T06:00:12;24.20;52.90
70807;DHT22;58882;52.170;5.386;2023-06-22T06:03:07;24.20;52.80
70807;DHT22;58882;52.170;5.386;2023-06-22T06:05:50;24.30;52.80
70807;DHT22;58882;52.170;5.386;2023-06-22T06:08:37;24.30;52.50
70807;DHT22;58882;52.170;5.386;2023-06-22T06:11:31;24.30;52.40
70807;DHT22;58882;52.170;5.386;2023-06-22T06:14:12;24.40;52.30
70807;DHT22;58882;52.170;5.386;2023-06-22T06:17:05;24.50;52.20
70807;DHT22;58882;52.170;5.386;2023-06-22T06:19:39;24.50;53.10
70807;DHT22;58882;52.170;5.386;2023-06-22T06:22:32;24.60;52.10
70807;DHT22;58882;52.170;5.386;2023-06-22T06:25:13;24.60;51.90
70807;DHT22;58882;52.170;5.386;2023-06-22T06:28:01;24.70;51.80
70807;DHT22;58882;52.170;5.386;2023-06-22T06:30:42;24.70;51.70
70807;DHT22;58882;52.170;5.386;2023-06-22T06:33:36;24.80;51.50
70807;DHT22;58882;52.170;5.386;2023-06-22T06:36:10;24.90;51.40
70807;DHT22;58882;52.170;5.386;2023-06-22T06:39:03;24.90;52.30
70807;DHT22;58882;52.170;5.386;2023-06-22T06:41:37;25.00;51.20
70807;DHT22;58882;52.170;5.386;2023-06-22T06:44:30;25.00;51.00
70807;DHT22;58882;52.170;5.386;2023-06-22T06:47:04;25.10;51.00
70807;DHT22;58882;52.170;5.386;2023-06-22T06:49:58;25.10;50.70
70807;DHT22;58882;52.170;5.386;2023-06-22T06:52:40;25.20;50.60
70807;DHT22;58882;52.170;5.386;2023-06-22T06:55:26;25.30;50.40
70807;DHT22;58882;52.170;5.386;2023-06-22T06:58:10;25.40;50.30
70807;DHT22;58882;52.170;5.386;2023-06-22T07:01:04;25.40;50.10
70807;DHT22;58882;52.170;5.386;2023-06-22T07:03:45;25.40;50.10
70807;DHT22;58882;52.170;5.386;2023-06-22T07:06:31;25.50;50.00
70807;DHT22;58882;52.170;5.386;2023-06-22T07:09:21;25.60;50.00
70807;DHT22;58882;52.170;5.386;2023-06-22T07:12:14;25.60;49.80
70807;DHT22;58882;52.170;5.386;2023-06-22T07:15:02;25.70;49.80
70807;DHT22;58882;52.170;5.386;2023-06-22T07:17:48;25.70;49.60
70807;DHT22;58882;52.170;5.386;2023-06-22T07:20:29;25.80;49.40
70807;DHT22;58882;52.170;5.386;2023-06-22T07:23:17;25.90;49.30
70807;DHT22;58882;52.170;5.386;2023-06-22T07:25:57;25.90;49.20
70807;DHT22;58882;52.170;5.386;2023-06-22T07:28:45;25.90;49.00
70807;DHT22;58882;52.170;5.386;2023-06-22T07:31:26;26.00;48.90
70807;DHT22;58882;52.170;5.386;2023-06-22T07:34:13;26.00;48.80
70807;DHT22;58882;52.170;5.386;2023-06-22T07:36:54;26.00;48.70
70807;DHT22;58882;52.170;5.386;2023-06-22T07:39:40;26.10;48.50
70807;DHT22;58882;52.170;5.386;2023-06-22T07:42:22;26.30;48.50
70807;DHT22;58882;52.170;5.386;2023-06-22T07:45:12;26.50;48.20
70807;DHT22;58882;52.170;5.386;2023-06-22T07:47:53;26.70;47.80
70807;DHT22;58882;52.170;5.386;2023-06-22T07:50:39;26.90;47.20
70807;DHT22;58882;52.170;5.386;2023-06-22T07:53:20;27.20;46.70
70807;DHT22;58882;52.170;5.386;2023-06-22T07:56:10;27.50;46.10
70807;DHT22;58882;52.170;5.386;2023-06-22T07:58:51;27.70;45.50
70807;DHT22;58882;52.170;5.386;2023-06-22T08:01:38;27.90;45.00
70807;DHT22;58882;52.170;5.386;2023-06-22T08:04:19;28.10;44.50
70807;DHT22;58882;52.170;5.386;2023-06-22T08:07:13;28.30;45.20
70807;DHT22;58882;52.170;5.386;2023-06-22T08:10:01;28.50;43.50
70807;DHT22;58882;52.170;5.386;2023-06-22T08:12:41;28.70;43.20
70807;DHT22;58882;52.170;5.386;2023-06-22T08:15:28;28.90;42.60
70807;DHT22;58882;52.170;5.386;2023-06-22T08:18:02;29.10;42.10
70807;DHT22;58882;52.170;5.386;2023-06-22T08:20:55;29.30;41.70
70807;DHT22;58882;52.170;5.386;2023-06-22T08:23:38;29.50;41.30
70807;DHT22;58882;52.170;5.386;2023-06-22T08:26:24;29.70;40.90
70807;DHT22;58882;52.170;5.386;2023-06-22T08:29:05;29.80;40.50
70807;DHT22;58882;52.170;5.386;2023-06-22T08:31:58;30.00;40.10
70807;DHT22;58882;52.170;5.386;2023-06-22T08:34:39;30.10;39.70
70807;DHT22;58882;52.170;5.386;2023-06-22T08:37:29;30.30;39.50
70807;DHT22;58882;52.170;5.386;2023-06-22T08:40:15;30.30;39.10
70807;DHT22;58882;52.170;5.386;2023-06-22T08:43:09;30.50;38.80
70807;DHT22;58882;52.170;5.386;2023-06-22T08:45:42;30.60;38.50
70807;DHT22;58882;52.170;5.386;2023-06-22T08:48:36;30.60;38.20
70807;DHT22;58882;52.170;5.386;2023-06-22T08:51:16;30.70;38.30
70807;DHT22;58882;52.170;5.386;2023-06-22T08:54:04;30.70;38.20
70807;DHT22;58882;52.170;5.386;2023-06-22T08:56:45;30.60;38.10
70807;DHT22;58882;52.170;5.386;2023-06-22T08:59:38;30.60;38.00
70807;DHT22;58882;52.170;5.386;2023-06-22T09:02:13;30.60;38.00
70807;DHT22;58882;52.170;5.386;2023-06-22T09:05:07;30.60;38.00
70807;DHT22;58882;52.170;5.386;2023-06-22T09:07:41;30.40;38.00
70807;DHT22;58882;52.170;5.386;2023-06-22T09:10:35;30.40;38.00
70807;DHT22;58882;52.170;5.386;2023-06-22T09:13:15;30.40;37.80
70807;DHT22;58882;52.170;5.386;2023-06-22T09:16:02;30.30;37.90
70807;DHT22;58882;52.170;5.386;2023-06-22T09:18:35;30.20;37.90
70807;DHT22;58882;52.170;5.386;2023-06-22T09:21:29;30.10;37.90
70807;DHT22;58882;52.170;5.386;2023-06-22T09:24:09;30.10;37.90
70807;DHT22;58882;52.170;5.386;2023-06-22T09:26:56;30.10;37.80
70807;DHT22;58882;52.170;5.386;2023-06-22T09:29:29;30.10;37.70
70807;DHT22;58882;52.170;5.386;2023-06-22T09:32:22;30.10;37.60
70807;DHT22;58882;52.170;5.386;2023-06-22T09:35:04;30.00;37.40
70807;DHT22;58882;52.170;5.386;2023-06-22T09:38:00;30.10;37.40
70807;DHT22;58882;52.170;5.386;2023-06-22T09:40:40;30.00;37.30
70807;DHT22;58882;52.170;5.386;2023-06-22T09:43:34;30.10;37.40
70807;DHT22;58882;52.170;5.386;2023-06-22T09:46:15;30.10;37.10
70807;DHT22;58882;52.170;5.386;2023-06-22T09:49:03;30.20;36.80
70807;DHT22;58882;52.170;5.386;2023-06-22T09:51:36;30.30;36.70
70807;DHT22;58882;52.170;5.386;2023-06-22T09:54:30;30.40;36.50
70807;DHT22;58882;52.170;5.386;2023-06-22T09:57:10;30.40;36.40
70807;DHT22;58882;52.170;5.386;2023-06-22T09:59:57;30.30;36.40
70807;DHT22;58882;52.170;5.386;2023-06-22T10:02:40;30.20;36.60
70807;DHT22;58882;52.170;5.386;2023-06-22T10:05:27;30.10;36.70
70807;DHT22;58882;52.170;5.386;2023-06-22T10:08:02;29.90;36.80
70807;DHT22;58882;52.170;5.386;2023-06-22T10:10:57;29.80;37.10
70807;DHT22;58882;52.170;5.386;2023-06-22T10:13:30;29.60;37.40
70807;DHT22;58882;52.170;5.386;2023-06-22T10:16:30;29.40;37.50
70807;DHT22;58882;52.170;5.386;2023-06-22T10:19:04;29.30;37.80
70807;DHT22;58882;52.170;5.386;2023-06-22T10:21:58;29.20;38.00
70807;DHT22;58882;52.170;5.386;2023-06-22T10:24:31;29.10;38.10
70807;DHT22;58882;52.170;5.386;2023-06-22T10:27:31;28.90;38.20
70807;DHT22;58882;52.170;5.386;2023-06-22T10:30:06;28.80;38.30
70807;DHT22;58882;52.170;5.386;2023-06-22T10:33:01;28.80;38.40
70807;DHT22;58882;52.170;5.386;2023-06-22T10:35:34;28.70;38.60
70807;DHT22;58882;52.170;5.386;2023-06-22T10:38:29;28.70;38.70
70807;DHT22;58882;52.170;5.386;2023-06-22T10:41:02;28.60;38.80
70807;DHT22;58882;52.170;5.386;2023-06-22T10:43:56;28.50;38.90
70807;DHT22;58882;52.170;5.386;2023-06-22T10:46:36;28.40;39.00
70807;DHT22;58882;52.170;5.386;2023-06-22T10:49:23;28.40;39.20
70807;DHT22;58882;52.170;5.386;2023-06-22T10:52:03;28.30;39.40
70807;DHT22;58882;52.170;5.386;2023-06-22T10:54:57;28.30;39.60
70807;DHT22;58882;52.170;5.386;2023-06-22T10:57:31;28.30;39.70
70807;DHT22;58882;52.170;5.386;2023-06-22T11:00:26;28.20;39.70
70807;DHT22;58882;52.170;5.386;2023-06-22T11:03:20;28.20;39.80
70807;DHT22;58882;52.170;5.386;2023-06-22T11:06:00;28.20;39.90
70807;DHT22;58882;52.170;5.386;2023-06-22T11:08:54;28.20;40.00
70807;DHT22;58882;52.170;5.386;2023-06-22T11:11:37;28.10;40.10
70807;DHT22;58882;52.170;5.386;2023-06-22T11:14:31;28.10;40.20
70807;DHT22;58882;52.170;5.386;2023-06-22T11:17:04;28.10;40.30
70807;DHT22;58882;52.170;5.386;2023-06-22T11:19:58;28.10;40.40
70807;DHT22;58882;52.170;5.386;2023-06-22T11:22:40;28.10;40.60
70807;DHT22;58882;52.170;5.386;2023-06-22T11:25:35;28.10;40.70
70807;DHT22;58882;52.170;5.386;2023-06-22T11:28:15;28.10;40.90
70807;DHT22;58882;52.170;5.386;2023-06-22T11:31:02;28.00;40.90
70807;DHT22;58882;52.170;5.386;2023-06-22T11:33:58;28.00;41.00
70807;DHT22;58882;52.170;5.386;2023-06-22T11:36:39;28.10;41.20
70807;DHT22;58882;52.170;5.386;2023-06-22T11:39:35;28.00;41.20
70807;DHT22;58882;52.170;5.386;2023-06-22T11:42:20;28.00;41.40
70807;DHT22;58882;52.170;5.386;2023-06-22T11:45:15;28.00;41.40
70807;DHT22;58882;52.170;5.386;2023-06-22T11:47:49;28.00;41.50
70807;DHT22;58882;52.170;5.386;2023-06-22T11:50:43;28.00;41.60
70807;DHT22;58882;52.170;5.386;2023-06-22T11:53:17;28.00;41.70
70807;DHT22;58882;52.170;5.386;2023-06-22T11:56:11;28.00;42.80
70807;DHT22;58882;52.170;5.386;2023-06-22T11:58:44;28.00;41.80
70807;DHT22;58882;52.170;5.386;2023-06-22T12:01:38;28.00;41.90
70807;DHT22;58882;52.170;5.386;2023-06-22T12:04:11;28.00;42.00
70807;DHT22;58882;52.170;5.386;2023-06-22T12:07:05;28.00;42.00
70807;DHT22;58882;52.170;5.386;2023-06-22T12:09:38;28.00;42.10
70807;DHT22;58882;52.170;5.386;2023-06-22T12:12:32;28.00;42.10
70807;DHT22;58882;52.170;5.386;2023-06-22T12:15:05;28.00;42.10
70807;DHT22;58882;52.170;5.386;2023-06-22T12:17:59;27.90;42.10
70807;DHT22;58882;52.170;5.386;2023-06-22T12:20:32;27.90;42.20
70807;DHT22;58882;52.170;5.386;2023-06-22T12:23:26;27.90;42.30
70807;DHT22;58882;52.170;5.386;2023-06-22T12:26:06;27.80;42.30
70807;DHT22;58882;52.170;5.386;2023-06-22T12:28:53;27.80;42.40
70807;DHT22;58882;52.170;5.386;2023-06-22T12:31:33;27.80;42.50
70807;DHT22;58882;52.170;5.386;2023-06-22T12:34:20;27.80;42.70
70807;DHT22;58882;52.170;5.386;2023-06-22T12:37:00;27.70;42.80
70807;DHT22;58882;52.170;5.386;2023-06-22T12:39:47;27.70;42.90
70807;DHT22;58882;52.170;5.386;2023-06-22T12:42:27;27.60;42.90
70807;DHT22;58882;52.170;5.386;2023-06-22T12:45:21;27.60;42.90
70807;DHT22;58882;52.170;5.386;2023-06-22T12:47:55;27.60;43.90
70807;DHT22;58882;52.170;5.386;2023-06-22T12:50:49;27.60;42.90
70807;DHT22;58882;52.170;5.386;2023-06-22T12:53:22;27.60;42.90
70807;DHT22;58882;52.170;5.386;2023-06-22T12:56:16;27.50;43.10
70807;DHT22;58882;52.170;5.386;2023-06-22T12:58:56;27.50;43.20
70807;DHT22;58882;52.170;5.386;2023-06-22T13:01:44;27.50;43.40
70807;DHT22;58882;52.170;5.386;2023-06-22T13:04:24;27.40;43.40
70807;DHT22;58882;52.170;5.386;2023-06-22T13:07:11;27.50;43.60
70807;DHT22;58882;52.170;5.386;2023-06-22T13:09:56;27.40;43.60
70807;DHT22;58882;52.170;5.386;2023-06-22T13:12:43;27.40;43.60
70807;DHT22;58882;52.170;5.386;2023-06-22T13:15:23;27.40;43.60
70807;DHT22;58882;52.170;5.386;2023-06-22T13:18:17;27.40;43.60
70807;DHT22;58882;52.170;5.386;2023-06-22T13:20:57;27.40;43.70
70807;DHT22;58882;52.170;5.386;2023-06-22T13:23:45;27.40;43.80
70807;DHT22;58882;52.170;5.386;2023-06-22T13:26:18;27.40;43.90
70807;DHT22;58882;52.170;5.386;2023-06-22T13:29:12;27.30;43.80
70807;DHT22;58882;52.170;5.386;2023-06-22T13:31:45;27.30;43.90
70807;DHT22;58882;52.170;5.386;2023-06-22T13:34:39;27.30;43.90
70807;DHT22;58882;52.170;5.386;2023-06-22T13:37:19;27.30;44.00
70807;DHT22;58882;52.170;5.386;2023-06-22T13:40:13;27.30;44.10
70807;DHT22;58882;52.170;5.386;2023-06-22T13:42:53;27.30;44.30
70807;DHT22;58882;52.170;5.386;2023-06-22T13:45:41;27.30;44.30
70807;DHT22;58882;52.170;5.386;2023-06-22T13:48:15;27.30;44.40
70807;DHT22;58882;52.170;5.386;2023-06-22T13:51:10;27.30;44.50
70807;DHT22;58882;52.170;5.386;2023-06-22T13:53:43;27.20;44.50
70807;DHT22;58882;52.170;5.386;2023-06-22T13:56:37;27.30;44.70
70807;DHT22;58882;52.170;5.386;2023-06-22T13:59:10;27.30;44.80
70807;DHT22;58882;52.170;5.386;2023-06-22T14:02:04;27.20;44.80
70807;DHT22;58882;52.170;5.386;2023-06-22T14:04:44;27.20;44.90
70807;DHT22;58882;52.170;5.386;2023-06-22T14:07:31;27.20;44.90
70807;DHT22;58882;52.170;5.386;2023-06-22T14:10:18;27.20;45.00
70807;DHT22;58882;52.170;5.386;2023-06-22T14:12:58;27.20;45.00
70807;DHT22;58882;52.170;5.386;2023-06-22T14:15:46;27.20;45.30
70807;DHT22;58882;52.170;5.386;2023-06-22T14:18:28;27.20;45.60
70807;DHT22;58882;52.170;5.386;2023-06-22T14:21:22;27.20;45.80
70807;DHT22;58882;52.170;5.386;2023-06-22T14:24:02;27.20;46.20
70807;DHT22;58882;52.170;5.386;2023-06-22T14:26:56;27.20;46.40
70807;DHT22;58882;52.170;5.386;2023-06-22T14:29:29;27.20;46.50
70807;DHT22;58882;52.170;5.386;2023-06-22T14:32:23;27.20;46.60
70807;DHT22;58882;52.170;5.386;2023-06-22T14:35:04;27.20;46.70
70807;DHT22;58882;52.170;5.386;2023-06-22T14:37:51;27.10;46.70
70807;DHT22;58882;52.170;5.386;2023-06-22T14:40:31;27.10;46.90
70807;DHT22;58882;52.170;5.386;2023-06-22T14:43:49;27.10;47.00
70807;DHT22;58882;52.170;5.386;2023-06-22T14:46:23;27.10;47.10
70807;DHT22;58882;52.170;5.386;2023-06-22T14:49:03;27.10;47.20
70807;DHT22;58882;52.170;5.386;2023-06-22T14:51:50;27.10;47.40
70807;DHT22;58882;52.170;5.386;2023-06-22T14:54:30;27.00;47.40
70807;DHT22;58882;52.170;5.386;2023-06-22T14:57:24;27.00;47.50
70807;DHT22;58882;52.170;5.386;2023-06-22T14:59:57;27.00;47.60
70807;DHT22;58882;52.170;5.386;2023-06-22T15:02:51;27.00;47.60
70807;DHT22;58882;52.170;5.386;2023-06-22T15:05:32;26.90;47.60
70807;DHT22;58882;52.170;5.386;2023-06-22T15:08:19;26.90;47.70
70807;DHT22;58882;52.170;5.386;2023-06-22T15:11:13;26.90;47.70
70807;DHT22;58882;52.170;5.386;2023-06-22T15:13:53;26.90;47.80
70807;DHT22;58882;52.170;5.386;2023-06-22T15:16:49;26.90;47.70
70807;DHT22;58882;52.170;5.386;2023-06-22T15:19:29;26.90;47.90
70807;DHT22;58882;52.170;5.386;2023-06-22T15:22:18;26.80;47.90
70807;DHT22;58882;52.170;5.386;2023-06-22T15:24:59;26.80;48.00
70807;DHT22;58882;52.170;5.386;2023-06-22T15:27:46;26.80;48.10
70807;DHT22;58882;52.170;5.386;2023-06-22T15:30:26;26.80;48.10
70807;DHT22;58882;52.170;5.386;2023-06-22T15:33:13;26.80;48.20
70807;DHT22;58882;52.170;5.386;2023-06-22T15:35:53;26.80;48.30
70807;DHT22;58882;52.170;5.386;2023-06-22T15:38:45;26.80;48.40
70807;DHT22;58882;52.170;5.386;2023-06-22T15:41:25;26.70;48.40
70807;DHT22;58882;52.170;5.386;2023-06-22T15:44:19;26.70;48.50
70807;DHT22;58882;52.170;5.386;2023-06-22T15:46:59;26.70;48.70
70807;DHT22;58882;52.170;5.386;2023-06-22T15:49:46;26.70;48.70
70807;DHT22;58882;52.170;5.386;2023-06-22T15:52:26;26.60;48.80
70807;DHT22;58882;52.170;5.386;2023-06-22T15:55:20;26.70;48.90
70807;DHT22;58882;52.170;5.386;2023-06-22T15:57:53;26.60;49.00
70807;DHT22;58882;52.170;5.386;2023-06-22T16:00:47;26.60;49.20
70807;DHT22;58882;52.170;5.386;2023-06-22T16:03:24;26.60;49.30
70807;DHT22;58882;52.170;5.386;2023-06-22T16:06:18;26.60;49.40
70807;DHT22;58882;52.170;5.386;2023-06-22T16:08:52;26.60;49.60
70807;DHT22;58882;52.170;5.386;2023-06-22T16:11:46;26.60;49.70
70807;DHT22;58882;52.170;5.386;2023-06-22T16:14:19;26.50;49.70
70807;DHT22;58882;52.170;5.386;2023-06-22T16:17:13;26.50;49.90
70807;DHT22;58882;52.170;5.386;2023-06-22T16:19:54;26.50;50.10
70807;DHT22;58882;52.170;5.386;2023-06-22T16:22:48;26.50;50.10
70807;DHT22;58882;52.170;5.386;2023-06-22T16:25:21;26.50;50.30
70807;DHT22;58882;52.170;5.386;2023-06-22T16:28:15;26.50;50.30
70807;DHT22;58882;52.170;5.386;2023-06-22T16:30:48;26.50;50.40
70807;DHT22;58882;52.170;5.386;2023-06-22T16:33:42;26.40;50.30
70807;DHT22;58882;52.170;5.386;2023-06-22T16:36:21;26.40;50.40
70807;DHT22;58882;52.170;5.386;2023-06-22T16:39:15;26.40;50.50
70807;DHT22;58882;52.170;5.386;2023-06-22T16:41:55;26.40;51.00
70807;DHT22;58882;52.170;5.386;2023-06-22T16:44:42;26.40;50.60
70807;DHT22;58882;52.170;5.386;2023-06-22T16:47:22;26.30;50.70
70807;DHT22;58882;52.170;5.386;2023-06-22T16:50:09;26.30;50.60
70807;DHT22;58882;52.170;5.386;2023-06-22T16:52:43;26.30;50.80
70807;DHT22;58882;52.170;5.386;2023-06-22T16:55:37;26.30;50.90
70807;DHT22;58882;52.170;5.386;2023-06-22T16:58:17;26.30;51.00
70807;DHT22;58882;52.170;5.386;2023-06-22T17:01:07;26.30;51.00
70807;DHT22;58882;52.170;5.386;2023-06-22T17:03:50;26.30;51.00
70807;DHT22;58882;52.170;5.386;2023-06-22T17:06:51;26.20;51.00
70807;DHT22;58882;52.170;5.386;2023-06-22T17:09:27;26.20;51.20
70807;DHT22;58882;52.170;5.386;2023-06-22T17:12:21;26.20;51.20
70807;DHT22;58882;52.170;5.386;2023-06-22T17:14:57;26.20;51.40
70807;DHT22;58882;52.170;5.386;2023-06-22T17:17:52;26.10;51.40
70807;DHT22;58882;52.170;5.386;2023-06-22T17:20:27;26.10;51.60
70807;DHT22;58882;52.170;5.386;2023-06-22T17:23:23;26.10;51.80